createdAt,value
2022-11-16T00:00:19.252Z,983.36
2022-11-16T00:01:19.252Z,983.32
2022-11-16T00:02:19.253Z,983.33
2022-11-16T00:03:19.222Z,983.34
2022-11-16T00:04:19.227Z,983.33
2022-11-16T00:05:22.007Z,983.35
2022-11-16T00:06:20.189Z,983.30
2022-11-16T00:07:19.272Z,983.27
2022-11-16T00:08:19.163Z,983.35
2022-11-16T00:09:19.179Z,983.31
2022-11-16T00:10:19.144Z,983.30
2022-11-16T00:11:19.145Z,983.33
2022-11-16T00:12:19.130Z,983.27
2022-11-16T00:13:19.124Z,983.27
2022-11-16T00:14:19.123Z,983.27
2022-11-16T00:15:19.102Z,983.27
2022-11-16T00:16:19.085Z,983.26
2022-11-16T00:17:19.087Z,983.22
2022-11-16T00:18:19.063Z,983.22
2022-11-16T00:19:19.080Z,983.23
2022-11-16T00:20:19.037Z,983.24
2022-11-16T00:21:19.035Z,983.23
2022-11-16T00:22:19.018Z,983.21
2022-11-16T00:23:19.017Z,983.22
2022-11-16T00:24:19.036Z,983.24
2022-11-16T00:25:19.007Z,983.20
2022-11-16T00:26:18.982Z,983.26
2022-11-16T00:27:18.969Z,983.27
2022-11-16T00:28:18.956Z,983.25
2022-11-16T00:29:18.971Z,983.18
2022-11-16T00:30:18.937Z,983.22
2022-11-16T00:31:18.938Z,983.21
2022-11-16T00:32:18.912Z,983.20
2022-11-16T00:33:18.909Z,983.18
2022-11-16T00:34:18.912Z,983.16
2022-11-16T00:35:18.884Z,983.18
2022-11-16T00:36:18.874Z,983.17
2022-11-16T00:37:18.862Z,983.16
2022-11-16T00:38:18.852Z,983.18
2022-11-16T00:39:18.865Z,983.19
2022-11-16T00:40:18.833Z,983.14
2022-11-16T00:41:18.825Z,983.15
2022-11-16T00:42:18.810Z,983.14
2022-11-16T00:43:18.823Z,983.11
2022-11-16T00:44:18.820Z,983.13
2022-11-16T00:45:18.785Z,983.11
2022-11-16T00:46:18.766Z,983.07
2022-11-16T00:47:18.755Z,983.11
2022-11-16T00:48:18.746Z,983.07
2022-11-16T00:49:18.757Z,983.06
2022-11-16T00:50:18.723Z,983.05
2022-11-16T00:51:18.716Z,983.09
2022-11-16T00:52:18.708Z,983.10
2022-11-16T00:53:18.695Z,983.08
2022-11-16T00:54:18.697Z,983.10
2022-11-16T00:55:18.677Z,983.10
2022-11-16T00:56:18.658Z,983.10
2022-11-16T00:57:18.655Z,983.05
2022-11-16T00:58:18.638Z,983.13
2022-11-16T00:59:18.656Z,983.06
2022-11-16T01:00:18.617Z,983.09
2022-11-16T01:01:18.682Z,983.12
2022-11-16T01:02:18.598Z,983.09
2022-11-16T01:03:18.594Z,983.03
2022-11-16T01:04:18.599Z,983.02
2022-11-16T01:05:18.575Z,983.02
2022-11-16T01:06:18.562Z,982.99
2022-11-16T01:07:18.597Z,982.98
2022-11-16T01:08:18.542Z,982.90
2022-11-16T01:09:18.543Z,982.90
2022-11-16T01:10:18.522Z,982.95
2022-11-16T01:11:18.493Z,982.95
2022-11-16T01:12:18.502Z,982.91
2022-11-16T01:13:18.475Z,982.91
2022-11-16T01:14:18.493Z,982.88
2022-11-16T01:15:18.455Z,982.90
2022-11-16T01:16:18.456Z,982.92
2022-11-16T01:17:18.445Z,982.86
2022-11-16T01:18:18.434Z,982.87
2022-11-16T01:19:18.433Z,982.83
2022-11-16T01:20:18.425Z,982.86
2022-11-16T01:21:18.400Z,982.87
2022-11-16T01:22:18.386Z,982.86
2022-11-16T01:23:18.380Z,982.82
2022-11-16T01:24:18.384Z,982.80
2022-11-16T01:25:18.356Z,982.80
2022-11-16T01:26:18.359Z,982.81
2022-11-16T01:27:18.328Z,982.80
2022-11-16T01:28:18.332Z,982.80
2022-11-16T01:29:18.328Z,982.77
2022-11-16T01:30:18.307Z,982.72
2022-11-16T01:31:18.292Z,982.72
2022-11-16T01:32:18.280Z,982.72
2022-11-16T01:33:18.271Z,982.74
2022-11-16T01:34:18.280Z,982.70
2022-11-16T01:35:18.263Z,982.73
2022-11-16T01:36:18.243Z,982.67
2022-11-16T01:37:18.231Z,982.68
2022-11-16T01:38:18.243Z,982.67
2022-11-16T01:39:18.222Z,982.69
2022-11-16T01:40:18.203Z,982.67
2022-11-16T01:41:18.192Z,982.71
2022-11-16T01:42:18.184Z,982.65
2022-11-16T01:43:18.165Z,982.69
2022-11-16T01:44:18.174Z,982.69
2022-11-16T01:45:18.144Z,982.62
2022-11-16T01:46:18.134Z,982.68
2022-11-16T01:47:18.131Z,982.68
2022-11-16T01:48:18.154Z,982.68
2022-11-16T01:49:18.122Z,982.66
2022-11-16T01:50:18.096Z,982.68
2022-11-16T01:51:18.084Z,982.69
2022-11-16T01:52:18.086Z,982.68
2022-11-16T01:53:18.057Z,982.64
2022-11-16T01:54:18.056Z,982.60
2022-11-16T01:55:18.058Z,982.63
2022-11-16T01:56:18.030Z,982.59
2022-11-16T01:57:18.019Z,982.60
2022-11-16T01:58:18.009Z,982.64
2022-11-16T01:59:17.998Z,982.62
2022-11-16T02:00:18.010Z,982.51
2022-11-16T02:01:18.088Z,982.56
2022-11-16T02:02:17.970Z,982.54
2022-11-16T02:03:17.958Z,982.55
2022-11-16T02:04:17.950Z,982.54
2022-11-16T02:05:17.951Z,982.53
2022-11-16T02:06:17.924Z,982.50
2022-11-16T02:07:17.983Z,982.54
2022-11-16T02:08:17.912Z,982.53
2022-11-16T02:09:17.892Z,982.50
2022-11-16T02:10:17.909Z,982.56
2022-11-16T02:11:17.874Z,982.54
2022-11-16T02:12:17.872Z,982.48
2022-11-16T02:13:17.853Z,982.48
2022-11-16T02:14:17.845Z,982.52
2022-11-16T02:15:17.843Z,982.48
2022-11-16T02:16:17.824Z,982.49
2022-11-16T02:17:17.814Z,982.53
2022-11-16T02:18:17.803Z,982.49
2022-11-16T02:19:17.787Z,982.53
2022-11-16T02:20:17.803Z,982.44
2022-11-16T02:21:17.767Z,982.48
2022-11-16T02:22:17.764Z,982.43
2022-11-16T02:23:17.754Z,982.42
2022-11-16T02:24:17.747Z,982.43
2022-11-16T02:25:17.747Z,982.45
2022-11-16T02:26:17.717Z,982.48
2022-11-16T02:27:17.709Z,982.51
2022-11-16T02:28:17.704Z,982.45
2022-11-16T02:29:17.687Z,982.53
2022-11-16T02:30:17.695Z,982.48
2022-11-16T02:31:17.670Z,982.44
2022-11-16T02:32:17.659Z,982.45
2022-11-16T02:33:17.649Z,982.48
2022-11-16T02:34:17.636Z,982.48
2022-11-16T02:35:17.640Z,982.50
2022-11-16T02:36:17.617Z,982.44
2022-11-16T02:37:17.599Z,982.46
2022-11-16T02:38:17.589Z,982.45
2022-11-16T02:39:17.578Z,982.39
2022-11-16T02:40:17.593Z,982.44
2022-11-16T02:41:17.566Z,982.47
2022-11-16T02:42:17.570Z,982.44
2022-11-16T02:43:17.541Z,982.40
2022-11-16T02:44:17.540Z,982.48
2022-11-16T02:45:17.538Z,982.43
2022-11-16T02:46:17.511Z,982.47
2022-11-16T02:47:17.495Z,982.54
2022-11-16T02:48:17.491Z,982.46
2022-11-16T02:49:17.474Z,982.43
2022-11-16T02:50:17.495Z,982.46
2022-11-16T02:51:17.456Z,982.46
2022-11-16T02:52:17.460Z,982.40
2022-11-16T02:53:17.433Z,982.44
2022-11-16T02:54:17.438Z,982.40
2022-11-16T02:55:17.427Z,982.39
2022-11-16T02:56:17.406Z,982.40
2022-11-16T02:57:17.399Z,982.41
2022-11-16T02:58:17.388Z,982.40
2022-11-16T02:59:17.855Z,982.38
2022-11-16T03:00:17.386Z,982.40
2022-11-16T03:01:17.418Z,982.42
2022-11-16T03:02:17.347Z,982.40
2022-11-16T03:03:17.328Z,982.35
2022-11-16T03:04:17.339Z,982.36
2022-11-16T03:05:17.327Z,982.32
2022-11-16T03:06:17.302Z,982.31
2022-11-16T03:07:17.346Z,982.29
2022-11-16T03:08:17.279Z,982.25
2022-11-16T03:09:17.269Z,982.28
2022-11-16T03:10:17.289Z,982.22
2022-11-16T03:11:17.247Z,982.20
2022-11-16T03:12:17.242Z,982.22
2022-11-16T03:13:17.231Z,982.26
2022-11-16T03:14:17.222Z,982.25
2022-11-16T03:15:17.234Z,982.24
2022-11-16T03:16:17.200Z,982.17
2022-11-16T03:17:17.183Z,982.24
2022-11-16T03:18:17.180Z,982.23
2022-11-16T03:19:17.163Z,982.23
2022-11-16T03:20:17.173Z,982.17
2022-11-16T03:21:17.134Z,982.09
2022-11-16T03:22:17.148Z,982.22
2022-11-16T03:23:17.134Z,982.14
2022-11-16T03:24:17.115Z,982.20
2022-11-16T03:25:17.116Z,982.22
2022-11-16T03:26:17.094Z,982.22
2022-11-16T03:27:17.075Z,982.25
2022-11-16T03:28:17.086Z,982.29
2022-11-16T03:29:17.056Z,982.23
2022-11-16T03:30:20.094Z,982.24
2022-11-16T03:31:18.027Z,982.30
2022-11-16T03:32:17.037Z,982.26
2022-11-16T03:33:17.015Z,982.27
2022-11-16T03:34:17.008Z,982.26
2022-11-16T03:35:17.017Z,982.24
2022-11-16T03:36:16.988Z,982.24
2022-11-16T03:37:16.990Z,982.25
2022-11-16T03:38:16.960Z,982.20
2022-11-16T03:39:16.958Z,982.25
2022-11-16T03:40:16.960Z,982.26
2022-11-16T03:41:16.938Z,982.18
2022-11-16T03:42:16.919Z,982.20
2022-11-16T03:43:16.911Z,982.17
2022-11-16T03:44:16.893Z,982.18
2022-11-16T03:45:16.913Z,982.12
2022-11-16T03:46:16.879Z,982.13
2022-11-16T03:47:16.875Z,982.16
2022-11-16T03:48:16.860Z,982.22
2022-11-16T03:49:16.854Z,982.22
2022-11-16T03:50:16.853Z,982.17
2022-11-16T03:51:16.833Z,982.09
2022-11-16T03:52:16.827Z,982.08
2022-11-16T03:53:16.819Z,982.15
2022-11-16T03:54:16.806Z,982.17
2022-11-16T03:55:16.815Z,982.16
2022-11-16T03:56:16.773Z,982.15
2022-11-16T03:57:16.766Z,982.13
2022-11-16T03:58:16.756Z,982.15
2022-11-16T03:59:16.756Z,982.13
2022-11-16T04:00:16.749Z,982.07
2022-11-16T04:01:16.793Z,982.08
2022-11-16T04:02:16.715Z,982.10
2022-11-16T04:03:16.707Z,982.05
2022-11-16T04:04:16.696Z,982.06
2022-11-16T04:05:16.708Z,982.05
2022-11-16T04:06:16.672Z,982.07
2022-11-16T04:07:16.722Z,982.09
2022-11-16T04:08:16.658Z,982.04
2022-11-16T04:09:16.648Z,982.09
2022-11-16T04:10:16.651Z,982.06
2022-11-16T04:11:16.621Z,982.09
2022-11-16T04:12:16.617Z,982.09
2022-11-16T04:13:16.600Z,982.01
2022-11-16T04:14:16.591Z,982.12
2022-11-16T04:15:16.601Z,982.13
2022-11-16T04:16:16.561Z,982.10
2022-11-16T04:17:16.560Z,982.09
2022-11-16T04:18:16.541Z,982.10
2022-11-16T04:19:16.541Z,982.08
2022-11-16T04:20:16.544Z,982.06
2022-11-16T04:21:16.521Z,982.05
2022-11-16T04:22:16.505Z,982.00
2022-11-16T04:23:16.518Z,982.00
2022-11-16T04:24:16.483Z,982.00
2022-11-16T04:25:16.493Z,982.01
2022-11-16T04:26:16.464Z,982.01
2022-11-16T04:27:16.458Z,982.02
2022-11-16T04:28:16.513Z,982.03
2022-11-16T04:29:16.436Z,982.03
2022-11-16T04:30:16.434Z,981.94
2022-11-16T04:31:16.417Z,982.00
2022-11-16T04:32:16.404Z,981.99
2022-11-16T04:33:16.396Z,981.97
2022-11-16T04:34:16.377Z,982.01
2022-11-16T04:35:16.398Z,982.00
2022-11-16T04:36:20.456Z,981.98
2022-11-16T04:37:16.359Z,981.99
2022-11-16T04:38:16.336Z,982.04
2022-11-16T04:39:16.328Z,982.08
2022-11-16T04:40:16.331Z,982.06
2022-11-16T04:41:16.311Z,982.04
2022-11-16T04:42:16.308Z,982.02
2022-11-16T04:43:16.291Z,982.00
2022-11-16T04:44:16.280Z,982.02
2022-11-16T04:45:16.291Z,981.93
2022-11-16T04:46:16.262Z,981.98
2022-11-16T04:47:16.251Z,981.91
2022-11-16T04:48:16.232Z,981.97
2022-11-16T04:49:16.223Z,981.95
2022-11-16T04:50:16.221Z,982.00
2022-11-16T04:51:16.223Z,981.96
2022-11-16T04:52:16.184Z,981.96
2022-11-16T04:53:16.184Z,982.00
2022-11-16T04:54:16.174Z,981.97
2022-11-16T04:55:16.164Z,981.95
2022-11-16T04:56:16.163Z,981.91
2022-11-16T04:57:16.146Z,981.90
2022-11-16T04:58:16.147Z,981.96
2022-11-16T04:59:16.123Z,981.97
2022-11-16T05:00:16.126Z,981.94
2022-11-16T05:01:16.156Z,981.91
2022-11-16T05:02:16.089Z,981.97
2022-11-16T05:03:16.118Z,981.97
2022-11-16T05:04:16.058Z,981.94
2022-11-16T05:05:16.064Z,981.94
2022-11-16T05:06:16.059Z,981.89
2022-11-16T05:07:16.144Z,981.94
2022-11-16T05:08:16.029Z,981.88
2022-11-16T05:09:16.050Z,981.96
2022-11-16T05:10:16.002Z,981.92
2022-11-16T05:11:16.011Z,981.93
2022-11-16T05:12:15.981Z,981.92
2022-11-16T05:13:15.980Z,981.86
2022-11-16T05:14:15.961Z,981.90
2022-11-16T05:15:15.961Z,981.90
2022-11-16T05:16:15.961Z,981.88
2022-11-16T05:17:15.932Z,981.88
2022-11-16T05:18:15.953Z,981.90
2022-11-16T05:19:15.916Z,981.88
2022-11-16T05:20:15.908Z,981.87
2022-11-16T05:21:15.917Z,981.85
2022-11-16T05:22:15.879Z,981.86
2022-11-16T05:23:16.038Z,981.83
2022-11-16T05:24:15.856Z,981.87
2022-11-16T05:25:15.856Z,981.84
2022-11-16T05:26:15.855Z,981.83
2022-11-16T05:27:15.836Z,981.84
2022-11-16T05:28:15.817Z,981.85
2022-11-16T05:29:15.808Z,981.86
2022-11-16T05:30:15.829Z,981.88
2022-11-16T05:31:15.810Z,981.83
2022-11-16T05:32:15.776Z,981.86
2022-11-16T05:33:15.778Z,981.85
2022-11-16T05:34:15.749Z,981.84
2022-11-16T05:35:15.748Z,981.87
2022-11-16T05:36:15.748Z,981.86
2022-11-16T05:37:15.728Z,981.82
2022-11-16T05:38:15.710Z,981.85
2022-11-16T05:39:15.707Z,981.87
2022-11-16T05:40:15.688Z,981.91
2022-11-16T05:41:15.699Z,981.86
2022-11-16T05:42:15.677Z,981.92
2022-11-16T05:43:15.666Z,981.87
2022-11-16T05:44:15.653Z,981.86
2022-11-16T05:45:19.867Z,981.90
2022-11-16T05:46:16.638Z,981.89
2022-11-16T05:47:15.623Z,981.84
2022-11-16T05:48:15.608Z,981.90
2022-11-16T05:49:15.600Z,981.94
2022-11-16T05:50:15.583Z,981.88
2022-11-16T05:51:15.596Z,981.92
2022-11-16T05:52:15.564Z,981.90
2022-11-16T05:53:15.564Z,981.88
2022-11-16T05:54:15.542Z,981.90
2022-11-16T05:55:15.535Z,981.93
2022-11-16T05:56:15.565Z,981.90
2022-11-16T05:57:15.515Z,981.92
2022-11-16T05:58:15.496Z,981.91
2022-11-16T05:59:16.740Z,981.88
2022-11-16T06:00:15.484Z,981.92
2022-11-16T06:01:15.496Z,981.87
2022-11-16T06:02:15.457Z,981.87
2022-11-16T06:03:15.486Z,981.87
2022-11-16T06:04:15.451Z,981.87
2022-11-16T06:05:15.457Z,981.88
2022-11-16T06:06:15.438Z,981.89
2022-11-16T06:07:15.493Z,981.86
2022-11-16T06:08:15.407Z,981.87
2022-11-16T06:09:15.389Z,981.93
2022-11-16T06:10:15.370Z,981.92
2022-11-16T06:11:15.388Z,981.87
2022-11-16T06:12:15.352Z,981.90
2022-11-16T06:13:15.359Z,981.85
2022-11-16T06:14:15.332Z,981.88
2022-11-16T06:15:15.331Z,981.86
2022-11-16T06:16:15.330Z,981.89
2022-11-16T06:17:15.310Z,981.91
2022-11-16T06:18:15.292Z,981.93
2022-11-16T06:19:15.294Z,981.93
2022-11-16T06:20:15.282Z,981.93
2022-11-16T06:21:15.282Z,981.97
2022-11-16T06:22:15.253Z,981.97
2022-11-16T06:23:15.245Z,981.94
2022-11-16T06:24:15.284Z,981.98
2022-11-16T06:25:15.234Z,981.97
2022-11-16T06:26:15.232Z,981.97
2022-11-16T06:27:15.266Z,981.98
2022-11-16T06:28:15.192Z,981.97
2022-11-16T06:29:15.184Z,981.99
2022-11-16T06:30:15.165Z,981.99
2022-11-16T06:31:15.145Z,981.98
2022-11-16T06:32:15.104Z,981.95
2022-11-16T06:33:15.087Z,981.98
2022-11-16T06:34:15.076Z,981.95
2022-11-16T06:35:15.068Z,981.95
2022-11-16T06:36:15.118Z,982.00
2022-11-16T06:37:15.100Z,982.00
2022-11-16T06:38:15.086Z,981.98
2022-11-16T06:39:15.077Z,982.03
2022-11-16T06:40:15.067Z,982.02
2022-11-16T06:41:15.031Z,982.00
2022-11-16T06:42:14.991Z,982.02
2022-11-16T06:43:14.994Z,982.08
2022-11-16T06:44:14.970Z,982.04
2022-11-16T06:45:14.961Z,982.07
2022-11-16T06:46:14.962Z,982.10
2022-11-16T06:47:14.941Z,982.06
2022-11-16T06:48:14.922Z,982.12
2022-11-16T06:49:15.312Z,982.07
2022-11-16T06:50:14.921Z,982.12
2022-11-16T06:51:14.924Z,982.17
2022-11-16T06:52:14.891Z,982.22
2022-11-16T06:53:14.892Z,982.17
2022-11-16T06:54:14.863Z,982.24
2022-11-16T06:55:14.862Z,982.24
2022-11-16T06:56:14.862Z,982.20
2022-11-16T06:57:14.833Z,982.26
2022-11-16T06:58:14.835Z,982.29
2022-11-16T06:59:14.815Z,982.26
2022-11-16T07:00:14.798Z,982.29
2022-11-16T07:01:14.848Z,982.28
2022-11-16T07:02:14.821Z,982.23
2022-11-16T07:03:14.776Z,982.30
2022-11-16T07:04:14.765Z,982.31
2022-11-16T07:05:14.749Z,982.26
2022-11-16T07:06:14.758Z,982.29
2022-11-16T07:07:14.789Z,982.34
2022-11-16T07:08:14.730Z,982.30
2022-11-16T07:09:14.709Z,982.33
2022-11-16T07:10:14.695Z,982.31
2022-11-16T07:11:14.709Z,982.26
2022-11-16T07:12:14.679Z,982.21
2022-11-16T07:13:14.669Z,982.31
2022-11-16T07:14:14.651Z,982.22
2022-11-16T07:15:14.652Z,982.28
2022-11-16T07:16:14.652Z,982.28
2022-11-16T07:17:14.639Z,982.28
2022-11-16T07:18:14.613Z,982.30
2022-11-16T07:19:14.615Z,982.30
2022-11-16T07:20:14.593Z,982.28
2022-11-16T07:21:14.607Z,982.34
2022-11-16T07:22:14.572Z,982.34
2022-11-16T07:23:14.762Z,982.33
2022-11-16T07:24:14.574Z,982.34
2022-11-16T07:25:14.543Z,982.36
2022-11-16T07:26:14.582Z,982.39
2022-11-16T07:27:14.524Z,982.40
2022-11-16T07:28:14.504Z,982.44
2022-11-16T07:29:14.523Z,982.41
2022-11-16T07:30:14.485Z,982.37
2022-11-16T07:31:14.481Z,982.39
2022-11-16T07:32:14.526Z,982.38
2022-11-16T07:33:14.463Z,982.43
2022-11-16T07:34:14.444Z,982.45
2022-11-16T07:35:14.436Z,982.43
2022-11-16T07:36:14.432Z,982.46
2022-11-16T07:37:14.441Z,982.42
2022-11-16T07:38:18.028Z,982.41
2022-11-16T07:39:14.402Z,982.44
2022-11-16T07:40:14.385Z,982.46
2022-11-16T07:41:14.376Z,982.51
2022-11-16T07:42:14.379Z,982.49
2022-11-16T07:43:14.349Z,982.44
2022-11-16T07:44:14.340Z,982.53
2022-11-16T07:45:14.336Z,982.52
2022-11-16T07:47:15.330Z,982.51
2022-11-16T07:48:14.292Z,982.56
2022-11-16T07:49:14.289Z,982.58
2022-11-16T07:50:14.274Z,982.60
2022-11-16T07:51:14.263Z,982.61
2022-11-16T07:52:14.269Z,982.72
2022-11-16T07:53:14.240Z,982.63
2022-11-16T07:54:14.247Z,982.65
2022-11-16T07:55:14.221Z,982.62
2022-11-16T07:56:14.212Z,982.62
2022-11-16T07:57:14.214Z,982.58
2022-11-16T07:58:14.202Z,982.65
2022-11-16T07:59:14.181Z,982.60
2022-11-16T08:00:14.174Z,982.59
2022-11-16T08:01:14.155Z,982.61
2022-11-16T08:02:14.215Z,982.57
2022-11-16T08:03:14.149Z,982.61
2022-11-16T08:04:14.127Z,982.60
2022-11-16T08:05:14.111Z,982.64
2022-11-16T08:06:14.113Z,982.63
2022-11-16T08:07:14.153Z,982.64
2022-11-16T08:08:14.092Z,982.65
2022-11-16T08:09:14.077Z,982.64
2022-11-16T08:10:14.138Z,982.65
2022-11-16T08:11:14.048Z,982.60
2022-11-16T08:12:14.067Z,982.63
2022-11-16T08:13:14.029Z,982.61
2022-11-16T08:14:14.036Z,982.59
2022-11-16T08:15:14.011Z,982.60
2022-11-16T08:16:13.999Z,982.58
2022-11-16T08:17:14.009Z,982.64
2022-11-16T08:18:13.980Z,982.60
2022-11-16T08:19:13.972Z,982.62
2022-11-16T08:20:13.962Z,982.55
2022-11-16T08:21:13.972Z,982.60
2022-11-16T08:22:13.971Z,982.63
2022-11-16T08:23:13.931Z,982.63
2022-11-16T08:24:13.922Z,982.66
2022-11-16T08:25:13.933Z,982.64
2022-11-16T08:26:13.904Z,982.59
2022-11-16T08:27:13.901Z,982.58
2022-11-16T08:28:13.882Z,982.65
2022-11-16T08:29:13.862Z,982.62
2022-11-16T08:30:13.853Z,982.68
2022-11-16T08:31:13.843Z,982.65
2022-11-16T08:32:13.854Z,982.66
2022-11-16T08:33:13.853Z,982.63
2022-11-16T08:34:13.813Z,982.65
2022-11-16T08:35:13.797Z,982.65
2022-11-16T08:36:14.497Z,982.64
2022-11-16T08:37:13.794Z,982.60
2022-11-16T08:38:13.778Z,982.74
2022-11-16T08:39:13.764Z,982.74
2022-11-16T08:40:13.748Z,982.67
2022-11-16T08:41:13.736Z,982.70
2022-11-16T08:42:13.747Z,982.64
2022-11-16T08:43:13.709Z,982.68
2022-11-16T08:44:13.707Z,982.66
2022-11-16T08:45:13.688Z,982.62
2022-11-16T08:46:13.689Z,982.68
2022-11-16T08:47:13.686Z,982.74
2022-11-16T08:48:13.668Z,982.75
2022-11-16T08:49:13.648Z,982.75
2022-11-16T08:50:13.642Z,982.70
2022-11-16T08:51:18.608Z,982.73
2022-11-16T08:52:14.640Z,982.75
2022-11-16T08:53:13.611Z,982.76
2022-11-16T08:54:13.610Z,982.80
2022-11-16T08:55:13.584Z,982.83
2022-11-16T08:56:13.590Z,982.82
2022-11-16T08:57:13.579Z,982.85
2022-11-16T08:58:13.563Z,982.82
2022-11-16T08:59:13.551Z,982.77
2022-11-16T09:00:13.534Z,982.81
2022-11-16T09:01:13.572Z,982.88
2022-11-16T09:02:13.684Z,982.85
2022-11-16T09:03:13.497Z,982.89
2022-11-16T09:04:13.499Z,982.86
2022-11-16T09:05:13.483Z,982.87
2022-11-16T09:06:13.474Z,982.89
2022-11-16T09:07:13.544Z,982.84
2022-11-16T09:08:13.455Z,982.83
2022-11-16T09:09:13.434Z,982.82
2022-11-16T09:10:13.437Z,982.80
2022-11-16T09:11:13.416Z,982.79
2022-11-16T09:12:13.427Z,982.81
2022-11-16T09:13:13.393Z,982.78
2022-11-16T09:14:13.387Z,982.79
2022-11-16T09:15:13.368Z,982.78
2022-11-16T09:16:13.378Z,982.73
2022-11-16T09:17:13.829Z,982.82
2022-11-16T09:18:13.349Z,982.81
2022-11-16T09:19:13.337Z,982.75
2022-11-16T09:20:13.321Z,982.68
2022-11-16T09:21:13.301Z,982.77
2022-11-16T09:22:13.318Z,982.82
2022-11-16T09:23:13.299Z,982.83
2022-11-16T09:24:13.279Z,982.87
2022-11-16T09:25:13.268Z,982.87
2022-11-16T09:26:13.261Z,982.84
2022-11-16T09:27:13.269Z,982.85
2022-11-16T09:28:13.243Z,982.85
2022-11-16T09:29:13.223Z,982.90
2022-11-16T09:30:13.222Z,982.88
2022-11-16T09:31:13.202Z,982.95
2022-11-16T09:32:13.211Z,982.95
2022-11-16T09:33:13.186Z,982.97
2022-11-16T09:34:13.173Z,982.92
2022-11-16T09:35:13.154Z,982.86
2022-11-16T09:36:13.152Z,982.90
2022-11-16T09:37:13.154Z,982.90
2022-11-16T09:38:19.075Z,982.84
2022-11-16T09:39:29.992Z,982.89
2022-11-16T09:40:14.136Z,982.86
2022-11-16T09:41:13.097Z,982.85
2022-11-16T09:42:13.105Z,982.84
2022-11-16T09:43:13.077Z,982.86
2022-11-16T09:44:14.666Z,982.90
2022-11-16T09:45:13.116Z,982.91
2022-11-16T09:46:13.059Z,982.89
2022-11-16T09:47:13.052Z,982.95
2022-11-16T09:48:13.028Z,982.92
2022-11-16T09:49:17.206Z,982.98
2022-11-16T09:50:14.027Z,982.95
2022-11-16T09:51:12.990Z,982.95
2022-11-16T09:52:12.999Z,982.98
2022-11-16T09:53:12.970Z,982.96
2022-11-16T09:54:13.051Z,982.98
2022-11-16T09:55:16.002Z,982.95
2022-11-16T09:56:16.440Z,982.99
2022-11-16T09:57:13.944Z,982.96
2022-11-16T09:58:12.920Z,982.97
2022-11-16T09:59:17.982Z,982.96
2022-11-16T10:00:13.903Z,982.95
2022-11-16T10:01:12.941Z,983.02
2022-11-16T10:02:12.904Z,983.01
2022-11-16T10:03:12.864Z,982.98
2022-11-16T10:04:12.863Z,982.98
2022-11-16T10:05:12.846Z,982.99
2022-11-16T10:06:12.836Z,983.00
2022-11-16T10:07:12.876Z,982.95
2022-11-16T10:08:12.815Z,982.98
2022-11-16T10:09:12.804Z,982.96
2022-11-16T10:10:12.799Z,982.93
2022-11-16T10:11:12.856Z,982.89
2022-11-16T10:12:13.617Z,982.91
2022-11-16T10:13:12.786Z,982.92
2022-11-16T10:14:12.767Z,982.91
2022-11-16T10:15:12.762Z,982.92
2022-11-16T10:16:12.767Z,982.90
2022-11-16T10:17:12.741Z,982.95
2022-11-16T10:18:12.710Z,982.94
2022-11-16T10:19:12.699Z,982.96
2022-11-16T10:20:12.704Z,982.95
2022-11-16T10:21:12.686Z,982.92
2022-11-16T10:22:12.688Z,982.96
2022-11-16T10:23:12.651Z,982.94
2022-11-16T10:24:12.648Z,982.89
2022-11-16T10:25:12.638Z,982.96
2022-11-16T10:26:12.629Z,982.90
2022-11-16T10:27:14.024Z,982.91
2022-11-16T10:28:12.608Z,982.86
2022-11-16T10:29:12.592Z,982.86
2022-11-16T10:30:12.595Z,982.87
2022-11-16T10:31:12.578Z,982.85
2022-11-16T10:32:12.583Z,982.87
2022-11-16T10:33:12.553Z,982.89
2022-11-16T10:34:12.652Z,982.87
2022-11-16T10:35:12.730Z,982.84
2022-11-16T10:36:12.534Z,982.84
2022-11-16T10:37:12.524Z,982.81
2022-11-16T10:38:12.503Z,982.81
2022-11-16T10:39:12.484Z,982.78
2022-11-16T10:40:12.484Z,982.82
2022-11-16T10:41:12.474Z,982.81
2022-11-16T10:42:12.476Z,982.80
2022-11-16T10:43:12.455Z,982.81
2022-11-16T10:44:12.438Z,982.80
2022-11-16T10:45:12.424Z,982.78
2022-11-16T10:46:12.417Z,982.76
2022-11-16T10:47:12.425Z,982.72
2022-11-16T10:48:12.399Z,982.73
2022-11-16T10:49:12.387Z,982.66
2022-11-16T10:50:12.379Z,982.76
2022-11-16T10:51:12.365Z,982.77
2022-11-16T10:52:12.377Z,982.74
2022-11-16T10:53:12.349Z,982.73
2022-11-16T10:54:12.338Z,982.68
2022-11-16T10:55:12.321Z,982.66
2022-11-16T10:56:12.320Z,982.67
2022-11-16T10:57:12.331Z,982.73
2022-11-16T10:58:12.293Z,982.68
2022-11-16T10:59:12.288Z,982.65
2022-11-16T11:00:13.420Z,982.70
2022-11-16T11:01:12.386Z,982.72
2022-11-16T11:02:12.273Z,982.66
2022-11-16T11:03:12.232Z,982.68
2022-11-16T11:04:12.234Z,982.65
2022-11-16T11:05:12.212Z,982.66
2022-11-16T11:06:12.224Z,982.66
2022-11-16T11:07:12.274Z,982.65
2022-11-16T11:08:12.191Z,982.67
2022-11-16T11:09:12.172Z,982.69
2022-11-16T11:10:12.165Z,982.74
2022-11-16T11:11:12.146Z,982.73
2022-11-16T11:12:12.166Z,982.77
2022-11-16T11:13:12.130Z,982.69
2022-11-16T11:14:12.117Z,982.72
2022-11-16T11:15:12.120Z,982.67
2022-11-16T11:16:12.097Z,982.69
2022-11-16T11:17:12.097Z,982.72
2022-11-16T11:18:12.089Z,982.68
2022-11-16T11:19:12.060Z,982.65
2022-11-16T11:20:12.068Z,982.65
2022-11-16T11:21:12.040Z,982.65
2022-11-16T11:22:12.085Z,982.62
2022-11-16T11:23:12.033Z,982.59
2022-11-16T11:24:42.846Z,982.59
2022-11-16T11:25:13.000Z,982.56
2022-11-16T11:26:11.991Z,982.58
2022-11-16T11:27:11.984Z,982.59
2022-11-16T11:28:11.991Z,982.62
2022-11-16T11:29:11.951Z,982.60
2022-11-16T11:30:11.952Z,982.62
2022-11-16T11:31:11.933Z,982.66
2022-11-16T11:32:11.930Z,982.61
2022-11-16T11:33:11.931Z,982.59
2022-11-16T11:34:11.904Z,982.59
2022-11-16T11:35:11.893Z,982.61
2022-11-16T11:36:11.894Z,982.52
2022-11-16T11:37:11.873Z,982.57
2022-11-16T11:38:11.875Z,982.52
2022-11-16T11:39:12.021Z,982.49
2022-11-16T11:40:11.846Z,982.54
2022-11-16T11:41:11.836Z,982.51
2022-11-16T11:42:11.824Z,982.52
2022-11-16T11:43:14.952Z,982.49
2022-11-16T11:44:12.800Z,982.48
2022-11-16T11:45:11.789Z,982.49
2022-11-16T11:46:11.778Z,982.47
2022-11-16T11:47:55.805Z,982.49
2022-11-16T11:48:12.776Z,982.42
2022-11-16T11:49:11.745Z,982.48
2022-11-16T11:50:11.740Z,982.42
2022-11-16T11:51:11.720Z,982.43
2022-11-16T11:52:11.728Z,982.42
2022-11-16T11:53:11.718Z,982.43
2022-11-16T11:54:11.697Z,982.44
2022-11-16T11:55:11.680Z,982.38
2022-11-16T11:56:11.678Z,982.43
2022-11-16T11:57:11.659Z,982.37
2022-11-16T11:58:11.671Z,982.38
2022-11-16T11:59:11.640Z,982.37
2022-11-16T12:00:11.629Z,982.40
2022-11-16T12:01:11.630Z,982.38
2022-11-16T12:02:11.602Z,982.33
2022-11-16T12:03:11.644Z,982.40
2022-11-16T12:04:11.591Z,982.34
2022-11-16T12:05:11.573Z,982.34
2022-11-16T12:06:11.566Z,982.39
2022-11-16T12:07:11.571Z,982.34
2022-11-16T12:08:11.562Z,982.39
2022-11-16T12:09:11.535Z,982.38
2022-11-16T12:10:11.539Z,982.40
2022-11-16T12:11:11.517Z,982.39
2022-11-16T12:12:14.687Z,982.36
2022-11-16T12:13:11.506Z,982.36
2022-11-16T12:14:11.477Z,982.36
2022-11-16T12:15:11.478Z,982.37
2022-11-16T12:16:11.457Z,982.40
2022-11-16T12:17:11.457Z,982.32
2022-11-16T12:18:11.448Z,982.38
2022-11-16T12:19:11.437Z,982.36
2022-11-16T12:20:11.410Z,982.34
2022-11-16T12:21:11.409Z,982.38
2022-11-16T12:22:11.398Z,982.34
2022-11-16T12:23:11.409Z,982.36
2022-11-16T12:24:11.370Z,982.40
2022-11-16T12:25:11.367Z,982.36
2022-11-16T12:26:11.353Z,982.32
2022-11-16T12:27:11.342Z,982.33
2022-11-16T12:28:11.340Z,982.34
2022-11-16T12:29:11.321Z,982.36